createdAt,value
2022-10-05T00:00:00.170Z,2.50
2022-10-05T00:02:27.638Z,2.50
2022-10-05T00:04:57.070Z,2.35
2022-10-05T00:07:25.113Z,2.17
2022-10-05T00:09:59.370Z,2.92
2022-10-05T00:12:28.508Z,2.20
2022-10-05T00:15:00.462Z,2.40
2022-10-05T00:17:29.451Z,3.40
2022-10-05T00:19:57.138Z,2.20
2022-10-05T00:22:33.779Z,2.17
2022-10-05T00:25:03.143Z,2.70
2022-10-05T00:27:36.788Z,2.25
2022-10-05T00:30:21.109Z,2.15
2022-10-05T00:32:49.630Z,2.78
2022-10-05T00:35:18.562Z,2.25
2022-10-05T00:37:47.570Z,2.28
2022-10-05T00:40:33.505Z,2.50
2022-10-05T00:43:00.886Z,2.55
2022-10-05T00:45:37.801Z,2.65
2022-10-05T00:48:11.348Z,2.58
2022-10-05T00:50:47.383Z,2.20
2022-10-05T00:53:17.805Z,2.45
2022-10-05T00:58:15.023Z,2.20
2022-10-05T01:01:23.854Z,2.20
2022-10-05T01:03:51.301Z,2.13
2022-10-05T01:06:36.575Z,2.75
2022-10-05T01:09:33.379Z,2.33
2022-10-05T01:12:00.683Z,2.55
2022-10-05T01:14:37.938Z,2.80
2022-10-05T01:17:21.037Z,2.25
2022-10-05T01:20:04.815Z,2.78
2022-10-05T01:22:56.603Z,2.78
2022-10-05T01:25:27.035Z,2.28
2022-10-05T01:28:15.469Z,2.40
2022-10-05T01:31:06.161Z,2.15
2022-10-05T01:33:39.663Z,2.47
2022-10-05T01:36:07.032Z,2.25
2022-10-05T01:38:35.672Z,2.70
2022-10-05T01:41:07.654Z,2.72
2022-10-05T01:46:30.471Z,2.67
2022-10-05T01:49:37.116Z,2.70
2022-10-05T01:52:28.724Z,2.40
2022-10-05T01:55:03.018Z,2.38
2022-10-05T01:57:36.606Z,2.58
2022-10-05T02:00:15.255Z,2.40
2022-10-05T02:02:52.559Z,2.92
2022-10-05T02:05:20.056Z,2.28
2022-10-05T02:07:47.556Z,2.33
2022-10-05T02:10:38.714Z,2.35
2022-10-05T02:13:22.879Z,2.17
2022-10-05T02:16:10.651Z,1.85
2022-10-05T02:18:53.897Z,2.50
2022-10-05T02:21:22.222Z,2.58
2022-10-05T02:23:53.608Z,3.10
2022-10-05T02:26:21.608Z,2.45
2022-10-05T02:28:49.002Z,2.50
2022-10-05T02:31:24.155Z,2.50
2022-10-05T02:33:51.618Z,2.03
2022-10-05T02:36:40.706Z,2.95
2022-10-05T02:39:08.126Z,2.75
2022-10-05T02:41:41.427Z,3.20
2022-10-05T02:44:26.968Z,2.38
2022-10-05T02:47:16.028Z,2.35
2022-10-05T02:49:53.828Z,2.72
2022-10-05T02:52:40.145Z,2.85
2022-10-05T02:55:16.040Z,3.00
2022-10-05T02:58:08.128Z,3.00
2022-10-05T03:00:46.471Z,3.95
2022-10-05T03:03:36.576Z,2.85
2022-10-05T03:06:12.095Z,2.92
2022-10-05T03:08:49.609Z,3.33
2022-10-05T03:11:46.918Z,2.55
2022-10-05T03:14:18.528Z,2.80
2022-10-05T03:17:21.520Z,3.35
2022-10-05T03:20:41.062Z,3.80
2022-10-05T03:23:24.505Z,2.67
2022-10-05T03:25:58.236Z,3.28
2022-10-05T03:28:35.537Z,3.28
2022-10-05T03:31:03.076Z,2.90
2022-10-05T03:33:44.455Z,3.10
2022-10-05T03:36:31.589Z,2.42
2022-10-05T03:39:16.162Z,3.20
2022-10-05T03:41:52.787Z,2.83
2022-10-05T03:44:29.530Z,3.25
2022-10-05T03:47:12.752Z,2.50
2022-10-05T03:50:10.075Z,3.20
2022-10-05T03:52:44.216Z,3.22
2022-10-05T03:55:30.436Z,2.90
2022-10-05T03:58:02.964Z,3.03
2022-10-05T04:00:32.072Z,3.13
2022-10-05T04:03:03.471Z,3.20
2022-10-05T04:05:41.308Z,2.83
2022-10-05T04:08:18.468Z,3.10
2022-10-05T04:10:51.967Z,3.22
2022-10-05T04:13:34.284Z,2.92
2022-10-05T04:16:07.890Z,3.08
2022-10-05T04:18:44.937Z,3.42
2022-10-05T04:21:14.716Z,3.05
2022-10-05T04:23:42.070Z,3.10
2022-10-05T04:26:16.440Z,2.97
2022-10-05T04:28:47.042Z,3.25
2022-10-05T04:31:25.338Z,3.30
2022-10-05T04:34:09.388Z,3.20
2022-10-05T04:36:46.135Z,3.15
2022-10-05T04:39:24.684Z,3.50
2022-10-05T04:42:14.734Z,3.95
2022-10-05T04:45:24.000Z,3.85
2022-10-05T04:48:12.090Z,3.77
2022-10-05T04:50:58.035Z,4.43
2022-10-05T04:53:45.673Z,3.83
2022-10-05T04:56:21.493Z,4.63
2022-10-05T04:58:57.661Z,4.40
2022-10-05T05:01:39.684Z,3.80
2022-10-05T05:04:11.084Z,4.50
2022-10-05T05:06:50.109Z,4.50
2022-10-05T05:09:29.772Z,4.30
2022-10-05T05:12:12.493Z,4.88
2022-10-05T05:14:52.595Z,4.82
2022-10-05T05:18:02.307Z,4.13
2022-10-05T05:20:29.751Z,4.40
2022-10-05T05:23:36.103Z,4.32
2022-10-05T05:26:25.620Z,4.68
2022-10-05T05:28:58.551Z,3.97
2022-10-05T05:31:40.704Z,5.97
2022-10-05T05:34:08.188Z,4.35
2022-10-05T05:36:50.105Z,4.82
2022-10-05T05:39:18.643Z,4.45
2022-10-05T05:42:01.578Z,5.30
2022-10-05T05:44:42.526Z,4.45
2022-10-05T05:47:10.099Z,5.07
2022-10-05T05:50:15.515Z,4.97
2022-10-05T05:52:51.623Z,4.25
2022-10-05T05:55:36.082Z,4.15
2022-10-05T05:58:29.969Z,4.13
2022-10-05T06:01:25.005Z,4.40
2022-10-05T06:04:26.619Z,4.40
2022-10-05T06:06:57.565Z,5.68
2022-10-05T06:09:54.440Z,4.50
2022-10-05T06:12:38.422Z,4.75
2022-10-05T06:15:23.004Z,4.45
2022-10-05T06:17:57.187Z,4.55
2022-10-05T06:20:41.319Z,4.43
2022-10-05T06:23:21.261Z,4.53
2022-10-05T06:26:11.781Z,3.80
2022-10-05T06:28:42.434Z,4.63
2022-10-05T06:31:11.081Z,5.30
2022-10-05T06:33:51.690Z,4.82
2022-10-05T06:36:24.731Z,4.90
2022-10-05T06:39:07.014Z,4.82
2022-10-05T06:41:37.316Z,4.85
2022-10-05T06:44:34.594Z,5.40
2022-10-05T06:47:35.573Z,4.85
2022-10-05T06:50:41.522Z,5.68
2022-10-05T06:53:42.312Z,5.65
2022-10-05T06:56:18.351Z,5.63
2022-10-05T06:59:01.173Z,5.18
2022-10-05T07:01:29.252Z,5.35
2022-10-05T07:04:25.630Z,6.00
2022-10-05T07:06:54.017Z,5.57
2022-10-05T07:09:22.663Z,5.50
2022-10-05T07:12:08.531Z,6.00
2022-10-05T07:15:01.425Z,6.30
2022-10-05T07:18:00.720Z,5.70
2022-10-05T07:21:04.152Z,6.25
2022-10-05T07:23:55.222Z,5.65
2022-10-05T07:26:45.350Z,5.68
2022-10-05T07:29:29.458Z,6.68
2022-10-05T07:32:00.002Z,6.30
2022-10-05T07:34:39.962Z,5.93
2022-10-05T07:37:38.831Z,5.78
2022-10-05T07:40:28.948Z,6.55
2022-10-05T07:43:06.303Z,6.18
2022-10-05T07:45:52.774Z,6.32
2022-10-05T07:48:43.428Z,6.97
2022-10-05T07:51:10.910Z,6.40
2022-10-05T07:53:45.247Z,6.20
2022-10-05T07:56:21.999Z,6.07
2022-10-05T07:59:01.807Z,6.38
2022-10-05T08:01:35.446Z,6.28
2022-10-05T08:04:04.374Z,6.22
2022-10-05T08:06:46.994Z,5.85
2022-10-05T08:09:47.312Z,5.65
2022-10-05T08:12:38.662Z,6.32
2022-10-05T08:15:06.254Z,5.25
2022-10-05T08:17:34.074Z,5.63
2022-10-05T08:20:27.716Z,6.47
2022-10-05T08:23:05.169Z,4.97
2022-10-05T08:25:54.886Z,5.22
2022-10-05T08:28:30.921Z,6.30
2022-10-05T08:31:15.965Z,5.85
2022-10-05T08:33:56.296Z,5.57
2022-10-05T08:36:35.059Z,4.90
2022-10-05T08:39:07.069Z,5.78
2022-10-05T08:42:06.892Z,5.05
2022-10-05T08:44:50.096Z,5.95
2022-10-05T08:47:36.209Z,6.00
2022-10-05T08:50:03.906Z,5.22
2022-10-05T08:53:03.339Z,5.10
2022-10-05T08:55:49.129Z,5.75
2022-10-05T08:58:16.755Z,5.72
2022-10-05T09:01:04.554Z,5.60
2022-10-05T09:03:50.948Z,5.07
2022-10-05T09:06:18.294Z,5.10
2022-10-05T09:09:09.741Z,5.03
2022-10-05T09:11:40.580Z,5.45
2022-10-05T09:14:14.295Z,5.70
2022-10-05T09:17:02.063Z,6.95
2022-10-05T09:19:43.419Z,5.72
2022-10-05T09:22:10.847Z,6.20
2022-10-05T09:24:57.265Z,5.45
2022-10-05T09:27:45.710Z,5.60
2022-10-05T09:30:15.669Z,6.15
2022-10-05T09:32:43.038Z,5.93
2022-10-05T09:35:16.330Z,5.43
2022-10-05T09:38:10.990Z,5.32
2022-10-05T09:40:53.709Z,5.63
2022-10-05T09:44:07.626Z,5.45
2022-10-05T09:46:37.928Z,5.60
2022-10-05T09:49:17.044Z,5.57
2022-10-05T09:51:44.718Z,5.35
2022-10-05T09:54:12.289Z,5.30
2022-10-05T09:56:42.676Z,5.43
2022-10-05T10:02:24.118Z,4.95
2022-10-05T10:04:51.681Z,4.85
2022-10-05T10:08:04.745Z,4.63
2022-10-05T10:10:41.067Z,4.78
2022-10-05T10:13:43.252Z,5.78
2022-10-05T10:16:10.773Z,4.90
2022-10-05T10:19:15.345Z,5.68
2022-10-05T10:21:45.766Z,5.55
2022-10-05T10:24:16.465Z,5.32
2022-10-05T10:26:56.444Z,5.15
2022-10-05T10:29:41.291Z,5.55
2022-10-05T10:32:43.905Z,5.40
2022-10-05T10:35:23.277Z,4.55
2022-10-05T10:37:55.469Z,4.87
2022-10-05T10:40:55.302Z,4.40
2022-10-05T10:44:11.157Z,4.75
2022-10-05T10:46:59.548Z,4.72
2022-10-05T10:49:44.898Z,3.33
2022-10-05T10:52:45.094Z,4.18
2022-10-05T10:55:27.735Z,4.10
2022-10-05T10:57:55.099Z,4.45
2022-10-05T11:00:24.695Z,4.00
2022-10-05T11:03:10.871Z,4.50
2022-10-05T11:06:00.923Z,3.47
2022-10-05T11:08:43.140Z,3.33
2022-10-05T11:11:31.956Z,3.42
2022-10-05T11:14:42.451Z,3.00
2022-10-05T11:17:39.530Z,2.92
2022-10-05T11:20:22.252Z,3.20
2022-10-05T11:23:08.112Z,3.28
2022-10-05T11:26:04.601Z,2.90
2022-10-05T11:28:49.362Z,2.90
2022-10-05T11:31:19.455Z,2.85
2022-10-05T11:34:13.029Z,3.05
2022-10-05T11:36:55.513Z,2.92
2022-10-05T11:39:22.881Z,2.97
2022-10-05T11:41:55.725Z,2.80
2022-10-05T11:44:44.275Z,2.70
2022-10-05T11:47:25.312Z,2.70
2022-10-05T11:50:11.596Z,3.10
2022-10-05T11:52:55.153Z,2.95
2022-10-05T11:55:28.626Z,2.95
2022-10-05T11:58:23.520Z,2.47
2022-10-05T12:00:59.784Z,2.70
2022-10-05T12:03:31.227Z,2.70
2022-10-05T12:06:12.414Z,2.72
2022-10-05T12:08:54.382Z,2.85
2022-10-05T12:11:34.040Z,2.22
2022-10-05T12:14:10.828Z,2.75
2022-10-05T12:16:51.057Z,2.45
2022-10-05T12:19:18.019Z,2.70
2022-10-05T12:21:55.009Z,2.50
2022-10-05T12:24:29.356Z,2.75
2022-10-05T12:27:03.691Z,2.50
2022-10-05T12:29:42.039Z,2.17
2022-10-05T12:32:11.902Z,2.40
2022-10-05T12:34:39.356Z,2.30
2022-10-05T12:37:47.716Z,2.38
2022-10-05T12:40:28.272Z,2.45
2022-10-05T12:42:59.262Z,1.83
2022-10-05T12:45:35.567Z,2.72
2022-10-05T12:48:47.173Z,1.85
2022-10-05T12:51:37.399Z,2.10
2022-10-05T12:54:25.107Z,2.42
2022-10-05T12:57:12.848Z,2.00
2022-10-05T12:59:55.294Z,2.78
2022-10-05T13:02:44.391Z,1.90
2022-10-05T13:07:55.910Z,2.00
2022-10-05T13:10:34.662Z,1.75
2022-10-05T13:13:07.449Z,1.55
2022-10-05T13:15:56.672Z,1.95
2022-10-05T13:18:24.052Z,1.90
2022-10-05T13:21:02.873Z,1.60
2022-10-05T13:23:43.797Z,1.85
2022-10-05T13:26:20.192Z,1.80
2022-10-05T13:29:44.630Z,1.55
2022-10-05T13:32:30.161Z,2.08
2022-10-05T13:35:25.522Z,1.75
2022-10-05T13:38:01.838Z,2.05
2022-10-05T13:40:58.097Z,2.03
2022-10-05T13:43:25.528Z,1.50
2022-10-05T13:46:07.406Z,1.92
2022-10-05T13:48:53.129Z,1.80
2022-10-05T13:51:45.905Z,1.40
2022-10-05T13:54:25.504Z,1.75
2022-10-05T13:56:58.897Z,1.33
2022-10-05T13:59:29.906Z,2.55
2022-10-05T14:02:06.197Z,1.65
2022-10-05T14:04:50.877Z,1.77
2022-10-05T14:07:32.178Z,1.90
2022-10-05T14:09:59.917Z,2.25
2022-10-05T14:12:28.554Z,1.88
2022-10-05T14:14:57.758Z,2.20
2022-10-05T14:17:33.441Z,1.73
2022-10-05T14:20:14.100Z,1.70
2022-10-05T14:22:42.498Z,2.10
2022-10-05T14:25:10.142Z,1.77
2022-10-05T14:28:24.201Z,1.95
2022-10-05T14:31:21.430Z,2.03
2022-10-05T14:33:48.797Z,2.85
2022-10-05T14:36:16.502Z,1.88
2022-10-05T14:38:58.016Z,1.77
2022-10-05T14:41:27.513Z,1.88
2022-10-05T14:44:00.023Z,2.08
2022-10-05T14:46:29.841Z,1.58
2022-10-05T14:49:25.781Z,1.83
2022-10-05T14:51:54.184Z,1.98
2022-10-05T14:54:21.551Z,2.08
2022-10-05T14:56:53.107Z,1.85
2022-10-05T14:59:23.327Z,1.70
2022-10-05T15:04:33.895Z,1.90
2022-10-05T15:07:24.089Z,1.92
2022-10-05T15:10:03.623Z,2.30
2022-10-05T15:12:39.347Z,2.25
2022-10-05T15:15:28.386Z,2.22
2022-10-05T15:18:12.140Z,2.20
2022-10-05T15:20:54.680Z,2.00
2022-10-05T15:23:26.225Z,2.20
2022-10-05T15:26:23.262Z,2.17
2022-10-05T15:29:29.498Z,2.10
2022-10-05T15:32:14.819Z,2.33
2022-10-05T15:35:00.702Z,2.30
2022-10-05T15:37:33.961Z,2.17
2022-10-05T15:40:08.470Z,2.42
2022-10-05T15:42:43.087Z,2.40
2022-10-05T15:45:32.443Z,2.60
2022-10-05T15:48:24.440Z,2.50
2022-10-05T15:51:15.377Z,1.88
2022-10-05T15:54:17.928Z,2.42
2022-10-05T15:57:04.360Z,2.50
2022-10-05T15:59:38.637Z,2.08
2022-10-05T16:02:14.844Z,2.17
2022-10-05T16:05:04.974Z,2.33
2022-10-05T16:08:02.188Z,2.60
2022-10-05T16:10:35.588Z,2.42
2022-10-05T16:13:03.023Z,2.22
2022-10-05T16:15:54.171Z,2.53
2022-10-05T16:18:34.033Z,2.83
2022-10-05T16:21:54.889Z,2.50
2022-10-05T16:24:27.284Z,2.88
2022-10-05T16:27:03.550Z,2.50
2022-10-05T16:30:01.846Z,2.15
2022-10-05T16:32:36.849Z,2.97
2022-10-05T16:35:16.842Z,2.65
2022-10-05T16:38:06.068Z,2.10
2022-10-05T16:40:33.441Z,2.35
2022-10-05T16:43:00.724Z,2.55
2022-10-05T16:45:44.781Z,2.40
2022-10-05T16:48:20.511Z,2.40
2022-10-05T16:51:24.118Z,2.47
2022-10-05T16:54:01.193Z,2.47
2022-10-05T16:56:34.395Z,2.40
2022-10-05T16:59:02.044Z,2.60
2022-10-05T17:01:39.747Z,2.53
2022-10-05T17:04:23.705Z,2.72
2022-10-05T17:07:04.642Z,2.50
2022-10-05T17:09:41.215Z,2.40
2022-10-05T17:12:08.605Z,3.17
2022-10-05T17:14:52.231Z,3.10
2022-10-05T17:17:52.852Z,3.28
2022-10-05T17:20:20.245Z,2.85
2022-10-05T17:22:57.263Z,3.03
2022-10-05T17:25:42.805Z,2.80
2022-10-05T17:28:16.411Z,3.38
2022-10-05T17:30:58.861Z,2.47
2022-10-05T17:33:26.401Z,2.50
2022-10-05T17:36:04.781Z,2.60
2022-10-05T17:38:34.128Z,2.22
2022-10-05T17:41:03.173Z,2.70
2022-10-05T17:43:31.774Z,2.40
2022-10-05T17:46:01.158Z,2.55
2022-10-05T17:48:50.002Z,3.07
2022-10-05T17:51:47.617Z,2.65
2022-10-05T17:54:43.167Z,2.60
2022-10-05T17:57:10.448Z,2.58
2022-10-05T17:59:46.047Z,2.20
2022-10-05T18:02:16.317Z,2.40
2022-10-05T18:07:22.644Z,2.85
2022-10-05T18:10:22.658Z,2.65
2022-10-05T18:13:02.027Z,2.35
2022-10-05T18:15:28.989Z,2.60
2022-10-05T18:18:20.148Z,2.67
2022-10-05T18:21:06.042Z,2.50
2022-10-05T18:23:36.234Z,2.50
2022-10-05T18:26:26.479Z,2.60
2022-10-05T18:29:13.647Z,2.90
2022-10-05T18:31:56.395Z,2.35
2022-10-05T18:34:39.383Z,2.38
2022-10-05T18:37:53.503Z,2.63
2022-10-05T18:40:59.236Z,2.35
2022-10-05T18:43:43.652Z,2.20
2022-10-05T18:46:38.686Z,2.45
2022-10-05T18:49:34.720Z,2.30
2022-10-05T18:52:13.514Z,2.22
2022-10-05T18:55:05.060Z,2.50
2022-10-05T18:57:32.397Z,2.50
2022-10-05T19:00:02.233Z,2.25
2022-10-05T19:02:36.271Z,3.63
2022-10-05T19:05:42.513Z,2.95
2022-10-05T19:08:18.047Z,2.90
2022-10-05T19:10:45.597Z,2.35
2022-10-05T19:13:47.067Z,2.67
2022-10-05T19:16:23.744Z,2.10
2022-10-05T19:18:53.499Z,3.20
2022-10-05T19:21:21.548Z,2.58
2022-10-05T19:24:10.641Z,2.50
2022-10-05T19:26:47.002Z,2.53
2022-10-05T19:29:35.747Z,2.95
2022-10-05T19:32:15.333Z,2.30
2022-10-05T19:34:51.382Z,2.83
2022-10-05T19:37:31.088Z,3.28
2022-10-05T19:40:09.724Z,2.72
2022-10-05T19:43:09.011Z,2.85
2022-10-05T19:46:02.324Z,3.47
2022-10-05T19:48:36.653Z,2.58
2022-10-05T19:51:11.348Z,3.08
2022-10-05T19:53:46.061Z,3.13
2022-10-05T19:56:22.603Z,3.10
2022-10-05T19:58:51.951Z,2.63
2022-10-05T20:01:25.722Z,3.03
2022-10-05T20:03:53.630Z,2.97
2022-10-05T20:06:22.708Z,3.17
2022-10-05T20:08:52.685Z,3.10
2022-10-05T20:11:21.699Z,3.42
2022-10-05T20:14:13.720Z,2.90
2022-10-05T20:16:59.850Z,3.85
2022-10-05T20:19:35.352Z,3.30
2022-10-05T20:22:25.828Z,3.70
2022-10-05T20:24:55.673Z,3.65
2022-10-05T20:27:42.259Z,3.22
2022-10-05T20:30:12.500Z,2.85
2022-10-05T20:35:07.049Z,2.55
2022-10-05T20:37:34.894Z,3.55
2022-10-05T20:40:02.388Z,3.70
2022-10-05T20:42:29.825Z,3.25
2022-10-05T20:44:57.978Z,2.88
2022-10-05T20:47:25.631Z,3.20
2022-10-05T20:49:56.165Z,3.28
2022-10-05T20:52:23.682Z,3.45
2022-10-05T20:54:53.943Z,3.25
2022-10-05T20:57:21.658Z,3.75
2022-10-05T20:59:49.117Z,3.25
2022-10-05T21:02:16.882Z,3.10
2022-10-05T21:04:47.503Z,3.20
2022-10-05T21:07:20.952Z,2.92
2022-10-05T21:09:48.351Z,2.67
2022-10-05T21:12:18.827Z,2.63
2022-10-05T21:14:47.470Z,2.85
2022-10-05T21:17:14.909Z,2.97
2022-10-05T21:19:42.184Z,3.00
2022-10-05T21:22:09.958Z,2.60
2022-10-05T21:24:38.703Z,2.60
2022-10-05T21:27:06.316Z,2.75
2022-10-05T21:29:34.376Z,3.42
2022-10-05T21:32:01.860Z,2.53
2022-10-05T21:34:29.334Z,3.17
2022-10-05T21:36:57.003Z,3.00
2022-10-05T21:39:24.772Z,3.05
2022-10-05T21:41:52.159Z,2.95
2022-10-05T21:44:19.575Z,3.38
2022-10-05T21:46:47.699Z,2.90
2022-10-05T21:49:17.622Z,3.15
2022-10-05T21:51:47.308Z,2.88
2022-10-05T21:54:19.081Z,3.13
2022-10-05T21:56:48.823Z,3.13
2022-10-05T21:59:18.915Z,2.85
2022-10-05T22:01:46.416Z,2.33
2022-10-05T22:04:15.040Z,2.80
2022-10-05T22:06:42.469Z,2.60
2022-10-05T22:09:09.891Z,2.90
2022-10-05T22:11:37.332Z,2.67
2022-10-05T22:14:04.870Z,2.30
2022-10-05T22:16:35.325Z,2.85
2022-10-05T22:19:03.873Z,2.15
2022-10-05T22:21:34.002Z,3.00
2022-10-05T22:24:02.775Z,2.58
2022-10-05T22:26:30.526Z,2.30
2022-10-05T22:28:57.929Z,2.40
2022-10-05T22:31:25.406Z,2.63
2022-10-05T22:33:52.827Z,2.65
2022-10-05T22:36:20.614Z,2.30
2022-10-05T22:38:48.131Z,2.53
2022-10-05T22:41:18.148Z,2.60
2022-10-05T22:43:48.690Z,2.33
2022-10-05T22:46:16.831Z,2.55
2022-10-05T22:48:44.221Z,2.78
2022-10-05T22:51:11.571Z,1.98
2022-10-05T22:53:39.173Z,2.85
2022-10-05T22:56:12.038Z,2.58
2022-10-05T22:58:39.675Z,2.72
2022-10-05T23:01:10.541Z,2.28
2022-10-05T23:03:37.980Z,2.20
2022-10-05T23:06:09.071Z,2.08
2022-10-05T23:08:37.227Z,2.25
2022-10-05T23:11:08.335Z,2.15
2022-10-05T23:13:35.803Z,2.50
2022-10-05T23:16:08.117Z,2.40
2022-10-05T23:18:35.670Z,2.45
2022-10-05T23:21:03.446Z,2.03
2022-10-05T23:23:30.753Z,2.15
2022-10-05T23:26:02.000Z,2.60
2022-10-05T23:28:29.957Z,2.08
2022-10-05T23:31:08.297Z,2.35
2022-10-05T23:33:35.775Z,1.90
2022-10-05T23:36:03.121Z,2.65
2022-10-05T23:38:31.067Z,1.90
2022-10-05T23:40:59.820Z,2.30
2022-10-05T23:43:27.817Z,1.95
2022-10-05T23:45:55.481Z,2.25
2022-10-05T23:48:23.282Z,2.03
2022-10-05T23:50:50.836Z,2.30
2022-10-05T23:53:18.573Z,2.03
2022-10-05T23:55:46.302Z,1.73
2022-10-05T23:58:13.659Z,2.00
